Airfield :
LOGIN :

Register | Disclaimer

   EN    FR    IT 

 










Legend :    VFR   Marginal VFR   IFR   Intensive IFR   Very Intensive IFR
Visi :
Ceiling :
>= 8 km
>= 3000ft
5 to 8 km
1000 to 3000 ft
1500m to 5 km
500 to 1000 ft
800 to 1500m
200 to 500 ft
< 800m
< 200 ft
Symbols :   Thunderstorms  Fog  Heavy snow  Heavy precipitations  Wind > 20 kt
SIGMETs :     Misc.  Thunderstorms  Icing  Turbulence  Mountain Waves  Volcanic Ashes






- Airport Elevation : 327 ft
- IATA code : BHX


EGBB - Birmingham

CURRENT METAR :
  • 290750Z 04007KT 350V060 9999 VCSH SCT043 10/05 Q1021

EXPIRED METARs :
  • 290720Z 02006KT 9999 BKN047 10/05 Q1021
  • 290650Z 02006KT 340V060 9999 BKN042 10/06 Q1022
  • 290620Z 34004KT 310V020 9999 SCT043 09/07 Q1022
  • 290550Z 33003KT 9999 VCSH FEW025 SCT045 09/07 Q1022
  • 290520Z 01004KT 9999 VCSH BKN041 09/06 Q1022

TAF TAF EGBB
Valid from the 29 at 06:00 until the 30 at 06:00 UTC


290457Z 2906/3006 35005KT 9999 SCT040
TEMPO 2906/2912 7000 SHRA
PROB30
TEMPO 2907/2912 BKN014
PROB30
TEMPO 2912/2919 7000 SHRA
ATIS : +44 121 780 0910



MET'MAP, your aeronautical weather chart ! - Copyright ORBIFLY December 2007 - Disclaimer

ORBIFLY MET'MAP TEAM :

Programming & Development : Alexandra Zaïnal
Original concept : Baudouin d'Aumeries
Technical & hardware support : Manuel Goepfert
Assistance : Marc-Olivier Méhu

Contact : metmap@orbifly.com




SOURCES & CREDITS :

   NOAA